Time;durP1;ratioP1;P1;durP2;ratioP2;P2;SDS_P1;SDS_P2;PMS_P1;PMS_P2;Temp;Humidity;BMP_temperature;BMP_pressure;BME280_temperature;BME280_humidity;BME280_pressure;Samples;Min_cycle;Max_cycle;Signal;HPM_P1;HPM_P2
2021/10/15 00:00:24;;;;;;;8.70;3.78;;;;;;;10.53;99.61;100497.53;4987789;28;20557;-85
2021/10/15 00:02:50;;;;;;;8.38;4.13;;;;;;;10.52;98.98;100489.69;4993945;28;20063;-84
2021/10/15 00:05:16;;;;;;;9.10;3.70;;;11.80;99.90;;;10.47;99.77;100495.19;4950566;28;20078;-84
2021/10/15 00:07:49;;;;;;;9.85;3.25;;;11.80;99.90;;;10.47;99.12;100487.31;4962752;28;20055;-84
2021/10/15 00:10:15;;;;;;;10.30;4.10;;;11.90;99.90;;;10.50;98.61;100475.78;4960999;28;20455;-84
2021/10/15 00:12:41;;;;;;;10.30;3.85;;;11.80;99.90;;;10.51;98.71;100477.50;4971426;28;20063;-84
2021/10/15 00:15:16;;;;;;;12.93;3.72;;;;;;;10.52;98.65;100502.88;4979280;28;20039;-83
2021/10/15 00:17:42;;;;;;;9.35;3.05;;;;;;;10.51;98.49;100659.13;4955534;28;20641;-84
2021/10/15 00:20:10;;;;;;;5.78;3.63;;;;;;;10.50;98.97;100631.97;4932288;28;20095;-84
2021/10/15 00:23:03;;;;;;;8.90;3.40;;;11.90;99.90;;;10.54;97.90;100616.84;4998593;28;20070;-84
2021/10/15 00:25:29;;;;;;;7.80;2.88;;;11.90;99.90;;;10.53;98.14;100607.25;4948534;28;20033;-83
2021/10/15 00:27:55;;;;;;;7.80;3.05;;;11.80;99.90;;;10.52;97.83;100590.63;4979094;28;20066;-84
2021/10/15 00:30:30;;;;;;;14.65;4.32;;;11.90;99.90;;;10.52;97.21;100581.84;4945331;28;20034;-85
2021/10/15 00:32:56;;;;;;;6.07;3.10;;;;;;;10.52;97.41;100577.47;4936228;28;20045;-85
2021/10/15 00:35:22;;;;;;;7.65;3.05;;;11.80;99.90;;;10.48;98.59;100602.22;4997355;28;20041;-85
2021/10/15 00:37:48;;;;;;;7.53;3.05;;;11.80;99.90;;;10.49;97.89;100605.69;4985919;28;20795;-85
2021/10/15 00:40:24;;;;;;;7.22;3.05;;;11.80;99.90;;;10.50;98.34;100591.63;4945405;28;20041;-84
2021/10/15 00:42:50;;;;;;;5.55;3.13;;;11.80;99.90;;;10.49;98.00;100579.38;4963969;28;20037;-84
2021/10/15 00:45:26;;;;;;;6.72;3.00;;;11.80;99.90;;;10.50;98.15;100573.19;4942199;28;20046;-84
2021/10/15 00:47:52;;;;;;;6.63;2.90;;;11.90;99.90;;;10.50;98.61;100576.69;4940024;28;20034;-84
2021/10/15 00:50:18;;;;;;;10.15;3.55;;;11.80;99.90;;;10.51;99.00;100567.00;4965460;28;20075;-84
2021/10/15 00:52:53;;;;;;;8.43;3.40;;;11.80;99.90;;;10.51;98.46;100562.56;4979687;28;20037;-84
2021/10/15 00:55:19;;;;;;;7.05;3.63;;;11.90;99.90;;;10.50;98.85;100554.78;4953015;28;20090;-84
2021/10/15 00:57:44;;;;;;;11.75;3.90;;;11.80;99.90;;;10.50;99.14;100545.09;4922214;28;20109;-84
2021/10/15 01:00:11;;;;;;;6.18;3.42;;;11.80;99.90;;;10.46;99.32;100539.09;4969913;28;20067;-84
2021/10/15 01:02:46;;;;;;;8.95;3.10;;;11.80;99.90;;;10.49;99.00;100540.72;4955415;28;20063;-84
2021/10/15 01:05:13;;;;;;;8.93;3.83;;;;;;;10.48;99.72;100540.84;4952172;28;20498;-84
2021/10/15 01:07:39;;;;;;;8.18;3.53;;;11.80;99.90;;;10.48;99.61;100527.66;4945367;28;20090;-83
2021/10/15 01:10:16;;;;;;;7.10;3.78;;;11.80;99.90;;;10.49;100.00;100534.63;4944361;28;20086;-84
2021/10/15 01:12:44;;;;;;;8.30;4.30;;;11.80;99.90;;;10.50;100.00;100515.28;4970591;28;20138;-84
2021/10/15 01:15:10;;;;;;;12.70;3.80;;;11.80;99.90;;;10.46;100.00;100512.78;5004780;28;20036;-84
2021/10/15 01:17:36;;;;;;;10.30;4.32;;;11.80;99.90;;;10.46;100.00;100510.16;4966503;28;20110;-84
2021/10/15 01:20:09;;;;;;;15.13;5.65;;;;;;;10.44;100.00;100505.91;4968262;28;20089;-84
2021/10/15 01:22:35;;;;;;;11.02;4.95;;;;;;;10.45;100.00;100497.06;4958927;28;20443;-84
2021/10/15 01:25:11;;;;;;;9.68;5.50;;;11.70;99.90;;;10.40;100.00;100492.03;5006488;28;20439;-83
2021/10/15 01:27:38;;;;;;;8.55;5.00;;;;;;;10.34;100.00;100489.69;4982373;28;20033;-84
2021/10/15 01:30:13;;;;;;;11.85;5.75;;;10.80;99.90;;;10.39;100.00;100492.13;4971372;28;20099;-84
2021/10/15 01:32:39;;;;;;;12.10;6.33;;;;;;;10.39;100.00;100479.81;4946404;28;20105;-84
2021/10/15 01:35:06;;;;;;;12.85;6.57;;;11.70;99.90;;;10.36;100.00;100482.56;4958673;28;20037;-84
2021/10/15 01:37:40;;;;;;;14.07;7.05;;;11.70;99.90;;;10.37;100.00;100481.66;4958290;28;20072;-83
2021/10/15 01:40:08;;;;;;;18.27;7.03;;;;;;;10.37;100.00;100465.88;4972309;28;20062;-84
2021/10/15 01:45:30;;;;;;;11.77;7.40;;;11.70;99.90;;;10.43;100.00;100454.16;4949514;28;20061;-83
2021/10/15 01:48:04;;;;;;;14.07;8.27;;;11.80;99.90;;;10.40;100.00;100449.06;4928883;28;20502;-84
2021/10/15 01:50:30;;;;;;;17.13;8.73;;;11.70;99.90;;;10.45;100.00;100441.78;4968210;28;20030;-84
2021/10/15 01:52:57;;;;;;;22.70;10.20;;;11.80;99.90;;;10.44;100.00;100433.03;4939950;28;20021;-85
2021/10/15 01:55:32;;;;;;;14.48;9.27;;;11.80;99.90;;;10.44;100.00;100437.47;4958734;28;20036;-84
2021/10/15 01:57:58;;;;;;;18.15;9.93;;;11.80;99.90;;;10.46;100.00;100439.09;4961151;28;20093;-84
2021/10/15 02:00:24;;;;;;;23.00;10.32;;;11.80;99.90;;;10.49;100.00;100439.84;4944792;28;20071;-84
2021/10/15 02:02:51;;;;;;;23.38;11.30;;;;;;;10.50;100.00;100433.69;4960313;28;22808;-83
2021/10/15 02:05:26;;;;;;;21.17;11.15;;;11.90;99.90;;;10.50;100.00;100433.69;4966211;28;20470;-84
2021/10/15 02:07:52;;;;;;;20.45;11.18;;;;;;;10.49;100.00;100431.97;4920789;28;20164;-84
2021/10/15 02:10:21;;;;;;;24.38;12.23;;;11.80;99.90;;;10.52;100.00;100421.25;4955329;28;20068;-84
2021/10/15 02:12:54;;;;;;;23.88;12.27;;;11.80;99.90;;;10.53;100.00;100415.94;4972486;28;20558;-83
2021/10/15 02:15:20;;;;;;;24.17;12.50;;;11.90;99.90;;;10.54;100.00;100403.59;4957152;28;20139;-83
2021/10/15 02:17:46;;;;;;;29.67;13.52;;;11.90;99.90;;;10.57;100.00;100401.69;4977939;28;20082;-84
2021/10/15 02:20:22;;;;;;;27.58;13.25;;;11.90;99.90;;;10.52;100.00;100395.81;4985274;28;20457;-84
2021/10/15 02:22:51;;;;;;;27.65;14.52;;;11.90;99.90;;;10.59;100.00;100399.81;4967761;28;20080;-83
2021/10/15 02:25:24;;;;;;;24.92;13.65;;;11.90;99.90;;;10.61;100.00;100392.69;4938569;28;20045;-84
2021/10/15 02:27:51;;;;;;;30.20;14.05;;;11.90;99.90;;;10.60;100.00;100385.72;4965857;28;20068;-84
2021/10/15 02:30:19;;;;;;;29.38;15.23;;;11.90;99.90;;;10.62;100.00;100375.09;4978163;28;20509;-84
2021/10/15 02:32:53;;;;;;;31.13;14.40;;;11.90;99.90;;;10.59;100.00;100362.97;4956807;28;20575;-84
2021/10/15 02:35:19;;;;;;;31.27;15.88;;;;;;;10.65;100.00;100367.06;4951712;28;20095;-84
2021/10/15 02:37:46;;;;;;;27.23;15.55;;;;;;;10.62;100.00;100359.31;4920266;28;20066;-83
2021/10/15 02:40:21;;;;;;;29.55;14.65;;;12.00;99.90;;;10.61;100.00;100332.13;4939748;28;20068;-84
2021/10/15 02:42:47;;;;;;;26.65;15.05;;;12.00;99.90;;;10.70;100.00;100338.69;5004412;28;20062;-83
2021/10/15 02:45:13;;;;;;;31.42;15.20;;;12.00;99.90;;;10.70;100.00;100333.44;4986507;28;20405;-83
2021/10/15 02:47:40;;;;;;;31.58;16.25;;;12.00;99.90;;;10.71;100.00;100321.94;4945046;28;20033;-82
2021/10/15 02:50:12;;;;;;;33.95;15.25;;;12.00;99.90;;;10.71;100.00;100319.31;4989811;28;20139;-84
2021/10/15 02:52:39;;;;;;;25.48;15.63;;;12.00;99.90;;;10.73;100.00;100314.81;4927362;28;20029;-83
2021/10/15 02:55:06;;;;;;;32.33;15.73;;;12.00;99.90;;;10.71;100.00;100305.31;4981236;28;20171;-83
2021/10/15 02:57:58;;;;;;;32.13;17.00;;;12.00;99.90;;;10.73;100.00;100296.38;4966895;28;20047;-84
2021/10/15 03:00:24;;;;;;;33.88;16.15;;;12.10;99.90;;;10.74;100.00;100306.00;4970522;28;20026;-84
2021/10/15 03:02:50;;;;;;;30.02;14.88;;;12.00;99.90;;;10.70;100.00;100288.66;4954184;28;20552;-84
2021/10/15 03:05:29;;;;;;;29.63;15.35;;;12.10;99.90;;;10.78;100.00;100277.72;4963355;28;20135;-83
2021/10/15 03:07:56;;;;;;;36.95;16.67;;;;;;;10.72;100.00;100265.72;5003859;28;20062;-83
2021/10/15 03:10:31;;;;;;;28.33;15.35;;;;;;;10.65;100.00;100259.94;4954930;28;20527;-85
2021/10/15 03:12:57;;;;;;;38.53;15.82;;;12.00;99.90;;;10.64;100.00;100252.13;4976878;28;20040;-83
2021/10/15 03:15:23;;;;;;;27.67;15.50;;;;;;;10.58;100.00;100252.47;4959645;28;20067;-84
2021/10/15 03:17:57;;;;;;;31.77;15.90;;;11.90;99.90;;;10.57;100.00;100251.63;4939484;28;20074;-83
2021/10/15 03:20:23;;;;;;;29.20;16.50;;;11.90;99.90;;;10.59;100.00;100256.81;4970666;28;20148;-84
2021/10/15 03:22:49;;;;;;;34.75;16.80;;;;;;;10.65;100.00;100265.22;4971780;28;20063;-83
2021/10/15 03:25:26;;;;;;;31.20;16.83;;;;;;;10.71;100.00;100250.00;4990911;28;20137;-84
2021/10/15 03:27:52;;;;;;;32.08;17.35;;;12.00;99.90;;;10.73;100.00;100245.50;4968293;28;20616;-84
2021/10/15 03:30:19;;;;;;;37.40;17.50;;;12.10;99.90;;;10.76;100.00;100243.56;4956485;28;20087;-84
2021/10/15 03:32:52;;;;;;;30.35;17.15;;;;;;;10.80;100.00;100242.47;4992066;28;20051;-84
2021/10/15 03:35:19;;;;;;;32.40;17.15;;;;;;;10.79;100.00;100222.31;4992097;28;20045;-84
2021/10/15 03:37:46;;;;;;;30.83;16.85;;;;;;;10.81;100.00;100220.44;4962520;28;20041;-83
2021/10/15 03:40:13;;;;;;;33.60;16.73;;;12.20;99.90;;;10.82;100.00;100218.66;4950966;28;20060;-83
2021/10/15 03:42:48;;;;;;;36.40;17.60;;;12.10;99.90;;;10.84;100.00;100206.25;4964172;28;20060;-83
2021/10/15 03:45:14;;;;;;;32.17;18.45;;;12.20;99.90;;;10.86;100.00;100202.63;4963357;28;20106;-83
2021/10/15 03:47:49;;;;;;;33.60;17.50;;;12.20;99.90;;;10.89;100.00;100212.13;4963798;28;20066;-83
2021/10/15 03:50:15;;;;;;;33.50;18.20;;;12.20;99.90;;;10.85;100.00;100202.69;4968097;28;20516;-84
2021/10/15 03:52:42;;;;;;;34.22;18.58;;;12.20;99.90;;;10.85;100.00;100203.53;4963293;28;20070;-84
2021/10/15 03:55:19;;;;;;;32.42;17.98;;;12.20;99.90;;;10.86;100.00;100205.25;4966398;28;20037;-84
2021/10/15 03:57:45;;;;;;;32.63;17.75;;;12.20;99.90;;;10.88;100.00;100202.50;4953283;28;20064;-83
2021/10/15 04:00:22;;;;;;;31.52;17.50;;;12.20;99.90;;;10.92;100.00;100197.94;4928998;28;20556;-84
2021/10/15 04:02:48;;;;;;;35.42;18.48;;;12.20;99.90;;;10.89;100.00;100193.69;4934915;28;20087;-84
2021/10/15 04:05:15;;;;;;;29.67;17.35;;;12.20;99.90;;;10.91;100.00;100202.38;4959807;28;20266;-84
2021/10/15 04:07:48;;;;;;;33.40;18.58;;;;;;;10.92;100.00;100193.50;4993598;28;20102;-83
2021/10/15 04:10:14;;;;;;;30.05;17.10;;;12.20;99.90;;;10.90;100.00;100179.56;4975824;28;20129;-84
2021/10/15 04:12:40;;;;;;;33.75;19.10;;;12.20;99.90;;;10.87;100.00;100172.69;4959465;28;20044;-84
2021/10/15 04:15:10;;;;;;;39.45;20.92;;;12.20;99.90;;;10.83;100.00;100173.81;4971662;28;20075;-84
2021/10/15 04:17:39;;;;;;;37.42;20.45;;;12.20;99.90;;;10.81;100.00;100180.94;4934838;28;20037;-84
2021/10/15 04:20:09;;;;;;;41.40;21.00;;;12.10;99.90;;;10.82;100.00;100202.84;4935319;28;20063;-83
2021/10/15 04:23:00;;;;;;;37.13;19.85;;;12.20;99.90;;;10.86;100.00;100230.72;4983810;28;20664;-84
2021/10/15 04:25:26;;;;;;;39.78;21.33;;;12.20;99.90;;;10.83;100.00;100221.22;4959720;28;20060;-83
2021/10/15 04:27:53;;;;;;;38.72;20.60;;;;;;;10.83;100.00;100179.06;4978187;28;20033;-83
2021/10/15 04:30:19;;;;;;;36.22;19.73;;;12.10;99.90;;;10.83;100.00;100173.81;4953036;28;20071;-83
2021/10/15 04:32:52;;;;;;;38.00;20.52;;;12.10;99.90;;;10.81;100.00;100177.47;4957964;28;20029;-83
2021/10/15 04:35:18;;;;;;;37.92;20.40;;;;;;;10.79;100.00;100174.91;4972468;28;20053;-83
2021/10/15 04:37:45;;;;;;;37.53;21.35;;;12.10;99.90;;;10.77;100.00;100163.63;4948555;28;20799;-83
2021/10/15 04:40:11;;;;;;;36.95;20.20;;;12.10;99.90;;;10.78;100.00;100167.13;4969590;28;20094;-83
2021/10/15 04:42:42;;;;;;;39.83;20.58;;;12.10;99.90;;;10.77;100.00;100160.13;4969137;28;20053;-83
2021/10/15 04:45:09;;;;;;;33.80;20.02;;;12.10;99.90;;;10.76;100.00;100154.03;4966216;28;20100;-84
2021/10/15 04:47:36;;;;;;;40.22;21.17;;;;;;;10.77;100.00;100147.81;4968815;28;20032;-83
2021/10/15 04:50:03;;;;;;;34.13;18.65;;;12.10;99.90;;;10.78;100.00;100139.00;4971388;28;20072;-83
2021/10/15 04:52:37;;;;;;;36.95;19.92;;;12.10;99.90;;;10.72;100.00;100126.16;4920620;28;20102;-83
2021/10/15 04:55:05;;;;;;;38.20;19.25;;;12.00;99.90;;;10.75;100.00;100131.25;4926038;28;20233;-83
2021/10/15 04:57:31;;;;;;;36.05;19.60;;;12.00;99.90;;;10.74;100.00;100116.41;4974682;28;20079;-83
2021/10/15 05:00:03;;;;;;;34.45;19.65;;;12.00;99.90;;;10.73;100.00;100119.13;4946471;28;20081;-83
2021/10/15 05:02:32;;;;;;;35.13;19.05;;;12.00;99.90;;;10.67;100.00;100097.47;4936079;28;20148;-83
2021/10/15 05:04:58;;;;;;;30.30;19.05;;;12.10;99.90;;;10.73;100.00;100101.53;4956760;28;20154;-83
2021/10/15 05:07:33;;;;;;;28.75;17.13;;;12.10;99.90;;;10.76;100.00;100098.72;4951676;28;20025;-83
2021/10/15 05:09:59;;;;;;;34.20;18.17;;;12.10;99.90;;;10.77;100.00;100096.94;4948759;28;20028;-83
2021/10/15 05:12:26;;;;;;;28.70;17.02;;;12.00;99.90;;;10.72;100.00;100089.31;4946110;28;20078;-83
2021/10/15 05:15:00;;;;;;;28.60;16.98;;;;;;;10.74;100.00;100086.59;5006468;28;20037;-82
2021/10/15 05:17:29;;;;;;;30.85;15.82;;;;;;;10.80;100.00;100088.88;4964423;28;20047;-83
2021/10/15 05:20:05;;;;;;;35.88;16.77;;;12.10;99.90;;;10.82;100.00;100066.78;4996002;28;20500;-83
2021/10/15 05:22:31;;;;;;;29.50;16.15;;;12.20;99.90;;;10.84;100.00;100061.41;4981801;28;20649;-83
2021/10/15 05:24:57;;;;;;;33.35;16.38;;;12.20;99.90;;;10.83;100.00;100054.44;4948239;28;20072;-83
2021/10/15 05:27:33;;;;;;;24.77;14.52;;;12.20;99.90;;;10.84;100.00;100058.78;4931520;28;20063;-83
2021/10/15 05:29:59;;;;;;;26.90;14.70;;;;;;;10.86;100.00;100049.88;4933949;28;20045;-83
2021/10/15 05:32:57;;;;;;;29.23;14.55;;;;;;;10.85;100.00;100042.88;5014413;28;20073;-83
2021/10/15 05:35:50;;;;;;;23.75;13.20;;;12.10;99.90;;;10.82;100.00;100044.84;4977341;28;20128;-83
2021/10/15 05:38:17;;;;;;;24.70;13.55;;;;;;;10.80;100.00;100039.69;4993922;28;20036;-83
2021/10/15 05:40:43;;;;;;;26.98;13.23;;;;;;;10.79;100.00;100035.34;5010709;28;20148;-82
2021/10/15 05:43:19;;;;;;;23.20;13.57;;;12.10;99.90;;;10.82;100.00;100035.19;4995310;28;20067;-83
2021/10/15 05:45:45;;;;;;;22.13;12.25;;;12.10;99.90;;;10.82;100.00;100027.28;4982330;28;20449;-83
2021/10/15 05:48:14;;;;;;;22.85;12.63;;;12.10;99.90;;;10.85;100.00;100020.97;4971036;28;20041;-81
2021/10/15 05:50:43;;;;;;;20.52;11.60;;;12.10;99.90;;;10.82;100.00;100019.38;4961385;28;20670;-84
2021/10/15 05:53:16;;;;;;;21.92;12.23;;;;;;;10.86;100.00;100010.34;5036136;28;20186;-83
2021/10/15 06:01:06;;;;;;;21.38;11.25;;;12.20;99.90;;;10.83;100.00;99994.72;4982803;28;20095;-83
2021/10/15 06:03:34;;;;;;;22.63;10.88;;;12.20;99.90;;;10.84;100.00;99983.28;4981454;28;20026;-83
2021/10/15 06:14:27;;;;;;;19.27;10.05;;;12.20;99.90;;;10.93;100.00;99984.50;4975493;28;20085;-84
2021/10/15 06:16:56;;;;;;;17.15;10.23;;;12.20;99.90;;;10.90;100.00;99981.19;4937302;28;20530;-83
2021/10/15 06:19:25;;;;;;;20.25;11.07;;;12.20;99.90;;;10.90;100.00;99981.19;4969457;28;20500;-83
2021/10/15 06:22:00;;;;;;;23.90;11.23;;;;;;;10.94;100.00;99974.81;4968868;28;20515;-83
2021/10/15 06:24:26;;;;;;;21.27;10.40;;;12.20;99.90;;;10.94;100.00;99966.91;4978794;28;20480;-82
2021/10/15 06:26:54;;;;;;;16.70;9.32;;;12.30;99.90;;;10.97;100.00;99971.97;4962952;28;20069;-82
2021/10/15 06:29:22;;;;;;;17.30;8.38;;;;;;;10.97;100.00;99964.06;4972753;28;20017;-82
2021/10/15 06:31:48;;;;;;;17.08;8.75;;;12.30;99.90;;;11.02;100.00;99976.03;4956853;28;20458;-83
2021/10/15 06:34:14;;;;;;;19.95;10.02;;;12.30;99.90;;;11.03;100.00;99966.34;4970021;28;20059;-82
2021/10/15 06:36:40;;;;;;;19.30;9.98;;;12.30;99.90;;;11.00;100.00;99963.91;4985885;28;20190;-83
2021/10/15 06:39:06;;;;;;;23.92;10.13;;;12.30;99.90;;;11.04;100.00;99966.25;4956103;28;20036;-82
2021/10/15 06:41:32;;;;;;;19.45;9.13;;;12.30;99.90;;;11.05;100.00;99972.38;4976947;28;20518;-82
2021/10/15 06:44:07;;;;;;;19.42;9.43;;;;;;;11.04;100.00;99963.63;4922624;28;20431;-83
2021/10/15 06:46:33;;;;;;;16.63;8.95;;;12.30;99.90;;;11.07;100.00;99957.31;4993723;28;20067;-83
2021/10/15 06:49:01;;;;;;;15.07;8.68;;;12.40;99.90;;;11.08;100.00;99945.84;4947099;28;20041;-83
2021/10/15 06:51:33;;;;;;;16.27;8.20;;;;;;;11.06;100.00;99943.31;4957064;28;20440;-83
2021/10/15 06:53:59;;;;;;;18.98;7.35;;;12.40;99.90;;;11.08;100.00;99943.22;4930453;28;20080;-81
2021/10/15 06:56:25;;;;;;;14.80;8.50;;;12.40;99.90;;;11.09;100.00;99931.72;4957540;28;20398;-82
2021/10/15 06:58:51;;;;;;;14.88;7.53;;;12.40;99.90;;;11.07;100.00;99905.47;4945183;28;20055;-83
2021/10/15 07:01:26;;;;;;;15.85;8.50;;;12.40;99.90;;;11.15;100.00;99936.63;4997175;28;20059;-83
2021/10/15 07:03:52;;;;;;;18.15;8.35;;;12.40;99.90;;;11.14;99.53;99928.81;4987463;28;20025;-83
2021/10/15 07:06:18;;;;;;;15.52;7.60;;;12.40;99.90;;;11.11;100.00;99940.38;4965818;28;20105;-82
2021/10/15 07:08:44;;;;;;;16.60;7.65;;;12.40;99.90;;;11.12;100.00;99936.78;5007869;28;20033;-83
2021/10/15 07:11:13;;;;;;;12.35;7.70;;;12.40;99.90;;;11.13;100.00;99930.59;4930265;28;20560;-82
2021/10/15 07:13:43;;;;;;;23.70;8.23;;;12.40;99.90;;;11.13;99.49;99929.75;4989621;28;20071;-83
2021/10/15 07:16:12;;;;;;;10.57;7.20;;;12.40;99.90;;;11.12;100.00;99926.25;4969946;28;20724;-83
2021/10/15 07:18:42;;;;;;;19.52;7.15;;;12.50;99.90;;;11.13;99.52;99927.13;4996230;28;20101;-82
2021/10/15 07:21:11;;;;;;;21.25;7.40;;;;;;;11.12;99.44;99920.97;4974178;28;20521;-83
2021/10/15 07:23:37;;;;;;;13.07;7.38;;;12.40;99.90;;;11.11;99.95;99929.84;4976458;28;20099;-82
2021/10/15 07:26:11;;;;;;;16.10;7.40;;;;;;;11.06;100.00;99909.06;4974237;28;20032;-83
2021/10/15 07:28:37;;;;;;;15.65;6.95;;;12.40;99.90;;;11.10;100.00;99909.72;4943607;28;20074;-82
2021/10/15 07:31:03;;;;;;;13.00;7.45;;;12.40;99.90;;;11.13;100.00;99919.22;4965161;28;20442;-82
2021/10/15 07:33:30;;;;;;;14.65;7.32;;;;;;;11.08;99.84;99912.44;4932832;28;20038;-82
2021/10/15 07:35:59;;;;;;;13.75;7.15;;;12.40;99.90;;;11.10;100.00;99909.72;5009960;28;20040;-82
2021/10/15 07:38:25;;;;;;;14.55;7.00;;;12.40;99.90;;;11.12;100.00;99904.34;4991933;28;20066;-82
2021/10/15 07:40:54;;;;;;;12.07;6.78;;;;;;;11.08;100.00;99906.34;4960636;28;20064;-83
2021/10/15 07:43:20;;;;;;;16.17;7.03;;;12.40;99.90;;;11.04;100.00;99910.09;4986990;28;20084;-83
2021/10/15 07:45:47;;;;;;;12.15;6.78;;;;;;;10.96;100.00;99896.53;4974469;28;20442;-83
2021/10/15 07:48:22;;;;;;;13.48;6.55;;;;;;;10.95;100.00;99908.00;4986692;28;20033;-83
2021/10/15 07:50:48;;;;;;;22.33;6.65;;;12.20;99.90;;;10.89;100.00;99903.97;4977278;28;20075;-83
2021/10/15 07:53:14;;;;;;;16.58;7.15;;;;;;;10.85;100.00;99907.72;5001066;28;21035;-84
2021/10/15 07:55:49;;;;;;;11.80;6.93;;;12.10;99.90;;;10.84;100.00;99911.28;4970396;28;20110;-84
2021/10/15 07:58:15;;;;;;;14.68;7.05;;;12.10;99.90;;;10.80;100.00;99905.38;4973345;28;20048;-86
2021/10/15 08:00:41;;;;;;;18.20;7.70;;;12.10;99.90;;;10.76;100.00;99914.41;5020740;28;20056;-86
2021/10/15 08:03:11;;;;;;;11.30;7.22;;;12.10;99.90;;;10.76;100.00;99911.78;4990290;28;20074;-86
2021/10/15 08:06:03;;;;;;;17.40;7.15;;;;;;;10.75;100.00;99920.59;4952784;28;20041;-86
2021/10/15 08:08:38;;;;;;;17.35;7.63;;;12.10;99.90;;;10.72;100.00;99918.16;4908135;28;20044;-85
2021/10/15 08:11:04;;;;;;;18.15;8.60;;;;;;;10.65;100.00;99919.47;4962004;28;20037;-87
2021/10/15 08:13:31;;;;;;;21.10;7.90;;;11.90;99.90;;;10.60;100.00;99927.63;4940501;28;20077;-86
2021/10/15 08:16:23;;;;;;;15.60;7.88;;;11.90;99.90;;;10.54;100.00;99914.84;4942167;28;20120;-85
2021/10/15 08:18:50;;;;;;;19.67;8.73;;;11.80;99.90;;;10.49;100.00;99932.69;4960154;28;20071;-85
2021/10/15 08:21:29;;;;;;;17.05;8.30;;;;;;;10.48;100.00;99935.41;5009484;28;20146;-85
2021/10/15 08:23:55;;;;;;;22.08;10.00;;;11.80;99.90;;;10.45;100.00;99934.66;4959590;28;20063;-85
2021/10/15 08:26:28;;;;;;;22.02;8.93;;;;;;;10.44;100.00;99940.84;4941235;28;20563;-85
2021/10/15 08:28:59;;;;;;;21.88;8.57;;;;;;;10.43;100.00;99936.53;4952668;28;20432;-85
2021/10/15 08:31:35;;;;;;;20.20;10.13;;;11.80;99.90;;;10.42;100.00;99937.47;4937268;28;20583;-87
2021/10/15 08:34:07;;;;;;;18.53;9.03;;;11.70;99.90;;;10.41;100.00;99930.50;4933628;28;20162;-84
2021/10/15 08:36:39;;;;;;;16.85;9.68;;;;;;;10.42;100.00;99940.09;4909574;28;20590;-85
2021/10/15 08:39:07;;;;;;;18.60;9.65;;;11.70;99.90;;;10.41;100.00;99932.28;4967248;28;20527;-85
2021/10/15 08:41:42;;;;;;;22.83;9.93;;;11.70;99.90;;;10.38;100.00;99925.41;4962682;28;20152;-85
2021/10/15 08:44:08;;;;;;;23.48;9.98;;;11.70;99.90;;;10.36;100.00;99937.81;4927931;28;20033;-84
2021/10/15 08:46:53;;;;;;;21.58;9.18;;;11.70;99.90;;;10.32;100.00;99945.97;4911320;28;20587;-85
2021/10/15 08:49:28;;;;;;;21.67;10.85;;;11.60;99.90;;;10.23;100.00;99981.53;4945136;28;20025;-85
2021/10/15 08:51:54;;;;;;;7.37;4.50;;;11.50;99.90;;;10.02;100.00;100000.22;4908058;28;20079;-86
2021/10/15 08:54:31;;;;;;;8.57;2.80;;;11.20;99.90;;;9.66;100.00;99984.69;4952787;28;20223;-86
2021/10/15 08:56:58;;;;;;;5.38;1.73;;;11.00;99.90;;;9.32;100.00;99968.13;4946237;28;20041;-85
2021/10/15 08:59:51;;;;;;;4.35;1.00;;;10.80;99.90;;;9.18;100.00;99984.63;4944093;28;20111;-84
2021/10/15 09:02:32;;;;;;;0.75;0.52;;;10.50;99.90;;;9.01;100.00;99974.16;4942964;28;20084;-85
2021/10/15 09:04:59;;;;;;;2.38;0.60;;;10.40;99.90;;;8.87;100.00;99955.63;4949621;28;20091;-85
2021/10/15 09:07:38;;;;;;;1.85;1.08;;;;;;;8.72;100.00;99955.47;4944725;28;20151;-83
2021/10/15 09:10:29;;;;;;;3.10;0.52;;;;;;;8.68;100.00;99961.81;4935773;28;20431;-85
2021/10/15 09:12:59;;;;;;;2.58;0.77;;;10.10;99.90;;;8.64;100.00;99962.91;4938806;28;21083;-85
2021/10/15 09:16:03;;;;;;;3.88;0.68;;;10.10;99.90;;;8.70;100.00;99978.31;4929207;28;20079;-86
2021/10/15 09:19:02;;;;;;;5.13;0.50;;;10.10;99.90;;;8.66;100.00;99995.19;4931141;28;20103;-87
2021/10/15 09:21:46;;;;;;;0.88;0.40;;;10.10;99.90;;;8.61;100.00;100005.03;4909548;28;20587;-85
2021/10/15 09:24:53;;;;;;;3.20;0.98;;;;;;;8.60;100.00;100009.44;4933184;28;20134;-87
2021/10/15 09:27:38;;;;;;;3.88;0.55;;;10.10;99.90;;;8.60;100.00;100032.22;4944467;28;20085;-85
2021/10/15 09:30:32;;;;;;;3.22;0.75;;;10.10;99.90;;;8.57;100.00;100048.97;4959964;28;20153;-86
2021/10/15 09:33:28;;;;;;;5.95;0.80;;;10.00;99.90;;;8.58;100.00;100068.19;5013180;28;20077;-85
2021/10/15 09:36:06;;;;;;;4.93;0.77;;;10.00;99.90;;;8.49;100.00;100074.75;4947842;28;20144;-85
2021/10/15 09:39:34;;;;;;;3.40;0.60;;;9.90;99.90;;;8.45;100.00;100064.47;4929754;28;20103;-85
2021/10/15 09:42:30;;;;;;;6.53;0.95;;;9.80;99.90;;;8.34;100.00;100043.97;4970875;28;20033;-84
2021/10/15 09:45:15;;;;;;;4.03;0.55;;;9.70;99.90;;;8.27;100.00;100048.66;4923267;28;20060;-84
2021/10/15 09:47:54;;;;;;;3.05;0.73;;;9.70;99.90;;;8.19;100.00;100056.03;4963098;28;20181;-84
2021/10/15 09:50:31;;;;;;;3.15;0.57;;;;;;;8.14;100.00;100065.88;4936042;28;20084;-83
2021/10/15 09:53:11;;;;;;;5.45;0.75;;;9.60;99.90;;;8.15;100.00;100067.59;4919360;28;20149;-84
2021/10/15 09:56:09;;;;;;;8.02;1.30;;;9.60;99.90;;;8.11;100.00;100074.75;4901651;28;20080;-84
2021/10/15 09:59:14;;;;;;;1.02;0.43;;;9.50;99.90;;;8.08;100.00;100066.16;4955754;28;20089;-84
2021/10/15 10:01:43;;;;;;;3.63;0.70;;;9.60;99.90;;;8.09;100.00;100067.88;4979447;28;20048;-83
2021/10/15 10:04:34;;;;;;;5.25;0.95;;;9.60;99.90;;;8.09;100.00;100071.34;4965733;28;20068;-84
2021/10/15 10:10:57;;;;;;;4.30;0.82;;;9.60;99.90;;;8.19;100.00;100077.03;4980530;28;20070;-84
2021/10/15 10:14:12;;;;;;;4.95;0.52;;;9.70;99.90;;;8.26;100.00;100091.53;4972710;28;20466;-85
2021/10/15 10:16:54;;;;;;;3.30;0.47;;;9.80;99.90;;;8.43;100.00;100116.16;4946869;28;20478;-85
2021/10/15 10:20:13;;;;;;;2.13;0.52;;;9.90;99.90;;;8.47;100.00;100123.81;4922778;28;20076;-85
2021/10/15 10:23:03;;;;;;;3.03;0.60;;;10.10;99.90;;;8.61;100.00;100178.25;4928845;28;20077;-85
2021/10/15 10:26:23;;;;;;;3.42;0.50;;;;;;;8.57;100.00;100134.72;4957409;28;20078;-85
2021/10/15 10:29:32;;;;;;;4.95;0.57;;;;;;;8.49;100.00;100131.59;4979207;28;20072;-85
2021/10/15 10:32:50;;;;;;;6.13;0.50;;;;;;;8.52;100.00;100124.44;4950122;28;20078;-85
2021/10/15 10:35:37;;;;;;;6.65;0.85;;;;;;;8.49;100.00;100119.34;4967675;28;20700;-85
2021/10/15 10:39:02;;;;;;;3.50;0.68;;;9.90;99.90;;;8.49;100.00;100148.22;4962755;28;20573;-85
2021/10/15 10:42:24;;;;;;;5.40;0.70;;;10.00;99.90;;;8.60;100.00;100172.16;4958902;28;20777;-86
2021/10/15 10:45:42;;;;;;;5.40;0.52;;;10.10;99.90;;;8.68;100.00;100179.66;4934317;28;20101;-86
2021/10/15 10:48:41;;;;;;;5.80;0.55;;;10.20;99.90;;;8.84;100.00;100177.16;4925166;28;20071;-87
2021/10/15 10:51:57;;;;;;;10.32;1.30;;;;;;;8.90;100.00;100178.63;4941220;28;21025;-86
2021/10/15 10:55:24;;;;;;;9.88;1.15;;;10.40;99.90;;;8.97;100.00;100172.19;4959127;28;20072;-86
2021/10/15 10:58:52;;;;;;;2.70;0.60;;;10.40;99.90;;;9.08;100.00;100148.00;4952394;28;20406;-87
2021/10/15 11:01:48;;;;;;;6.40;0.70;;;12.30;99.90;;;9.30;100.00;100137.28;4970435;28;20479;-86
2021/10/15 11:04:54;;;;;;;4.53;0.80;;;10.70;99.90;;;9.51;100.00;100169.50;4913285;28;20520;-87
2021/10/15 11:07:37;;;;;;;2.60;0.95;;;10.90;99.90;;;9.58;100.00;100131.44;4912104;28;20084;-87
2021/10/15 11:10:35;;;;;;;6.13;0.85;;;;;;;9.61;100.00;100212.75;4900035;28;20246;-87